Main page
METAR-TAF:

METAR-TAF

Airports :

Redwood Falls Municipal Airport

Redwood Falls, Minnesota, United States

latitude: 44-32-50N, longitude: 095-04-56W, elevation: 1023 ft

Current weather observation

The report was made 33 minutes ago, at 08:53 UTC
Wind 9 mph from the West
Temperature 32°F
Humidity 59%
Pressure 30.22 in. Hg
Visibility: 10 miles
Clear sky

METAR: KRWF 210853Z AUTO 26008KT 10SM CLR 00/M07 A3022 RMK AO2 SLP243 T00001067 56001 $

Time: 04:26 (09:26 UTC)

Forecast

The report was made 4 hours and 6 minutes ago, at 05:20 UTC
Forecast valid from 21 at 06 UTC to 22 at 06 UTC
Wind 10 mph from the West
Visibility: 6 miles
Clear sky
From 21 at 1700 UTC
Wind 13 mph from the West/Northwest with gusts up to 21 mph
Visibility: 6 miles
Clear sky
From 21 at 2300 UTC
Wind 7 mph from the West/Southwest
Visibility: 6 miles
Clear sky

TAF: KRWF 210520Z 2106/2206 27009KT P6SM SKC FM211700 30011G18KT P6SM SKC FM212300 25006KT P6SM SKC

Weather observations and forecasts of more than 4000 airports (METAR and TAF reports).

The available stations are represented by yellow and red dots on the map.

Hover mouse over dot to see the name of the station.

Then click to see weather observations and forecasts.

To change the map : click on the green buttons with a black cross to zoom in, on the green button with a dash to zoom out, or on the green arrows for adjacent maps.


METAR-TAF: